createdAt,value
2023-03-07T00:01:29.297Z,35.25
2023-03-07T00:03:59.001Z,34.00
2023-03-07T00:06:27.838Z,32.50
2023-03-07T00:08:59.618Z,34.00
2023-03-07T00:11:28.582Z,34.00
2023-03-07T00:13:57.356Z,34.00
2023-03-07T00:16:26.974Z,33.50
2023-03-07T00:18:56.486Z,34.75
2023-03-07T00:21:24.861Z,38.00
2023-03-07T00:23:54.439Z,35.00
2023-03-07T00:26:25.147Z,36.25
2023-03-07T00:28:55.333Z,35.50
2023-03-07T00:31:25.375Z,36.50
2023-03-07T00:33:54.208Z,35.00
2023-03-07T00:36:24.431Z,35.75
2023-03-07T00:38:54.004Z,36.75
2023-03-07T00:41:27.763Z,37.25
2023-03-07T00:43:56.812Z,36.00
2023-03-07T00:46:26.657Z,37.25
2023-03-07T00:48:54.986Z,36.50
2023-03-07T00:51:24.782Z,35.75
2023-03-07T00:53:53.344Z,37.00
2023-03-07T00:56:26.709Z,36.75
2023-03-07T00:58:55.096Z,38.00
2023-03-07T01:01:26.183Z,37.50
2023-03-07T01:03:55.248Z,34.25
2023-03-07T01:06:27.291Z,35.00
2023-03-07T01:09:00.655Z,35.75
2023-03-07T01:11:30.613Z,32.50
2023-03-07T01:14:05.447Z,34.25
2023-03-07T01:16:35.953Z,36.75
2023-03-07T01:19:08.114Z,35.50
2023-03-07T01:21:39.662Z,35.25
2023-03-07T01:24:13.990Z,32.75
2023-03-07T01:26:42.715Z,32.00
2023-03-07T01:29:12.772Z,35.25
2023-03-07T01:31:41.126Z,30.75
2023-03-07T01:34:09.540Z,34.25
2023-03-07T01:36:38.810Z,34.50
2023-03-07T01:39:11.723Z,30.75
2023-03-07T01:41:40.922Z,32.00
2023-03-07T01:44:29.586Z,31.75
2023-03-07T01:47:01.994Z,35.00
2023-03-07T01:49:38.503Z,34.00
2023-03-07T01:52:40.965Z,34.25
2023-03-07T01:55:22.567Z,32.50
2023-03-07T01:57:53.387Z,32.00
2023-03-07T02:00:30.728Z,32.75
2023-03-07T02:03:17.132Z,34.00
2023-03-07T02:05:57.881Z,32.00
2023-03-07T02:08:31.031Z,29.25
2023-03-07T02:10:59.393Z,31.00
2023-03-07T02:13:27.728Z,32.50
2023-03-07T02:15:57.378Z,33.25
2023-03-07T02:18:33.219Z,30.50
2023-03-07T02:21:13.409Z,29.25
2023-03-07T02:23:53.273Z,32.75
2023-03-07T02:26:54.366Z,30.50
2023-03-07T02:29:25.031Z,30.25
2023-03-07T02:31:53.321Z,31.00
2023-03-07T02:34:26.682Z,31.00
2023-03-07T02:37:18.616Z,32.00
2023-03-07T02:39:48.487Z,30.25
2023-03-07T02:42:24.068Z,29.00
2023-03-07T02:45:01.017Z,28.75
2023-03-07T02:47:30.508Z,29.00
2023-03-07T02:49:58.877Z,28.75
2023-03-07T02:52:28.897Z,30.00
2023-03-07T02:54:57.760Z,30.75
2023-03-07T02:57:26.087Z,32.00
2023-03-07T02:59:54.539Z,33.00
2023-03-07T03:02:22.905Z,29.00
2023-03-07T03:04:51.274Z,28.50
2023-03-07T03:07:19.677Z,28.25
2023-03-07T03:09:47.964Z,25.25
2023-03-07T03:12:16.373Z,29.00
2023-03-07T03:14:44.670Z,29.00
2023-03-07T03:17:13.105Z,30.00
2023-03-07T03:19:41.481Z,28.50
2023-03-07T03:22:09.893Z,26.75
2023-03-07T03:24:43.066Z,29.00
2023-03-07T03:27:11.934Z,25.00
2023-03-07T03:29:40.473Z,27.00
2023-03-07T03:32:09.097Z,30.00
2023-03-07T03:34:37.473Z,30.25
2023-03-07T03:37:05.801Z,30.25
2023-03-07T03:39:34.121Z,26.75
2023-03-07T03:42:02.509Z,27.50
2023-03-07T03:44:31.132Z,26.75
2023-03-07T03:46:59.494Z,29.25
2023-03-07T03:49:28.348Z,28.25
2023-03-07T03:51:56.650Z,29.00
2023-03-07T03:54:24.965Z,27.50
2023-03-07T03:56:55.905Z,27.25
2023-03-07T03:59:24.587Z,30.00
2023-03-07T04:01:53.071Z,27.25
2023-03-07T04:04:21.663Z,26.00
2023-03-07T04:06:49.957Z,25.00
2023-03-07T04:09:18.263Z,29.25
2023-03-07T04:11:46.568Z,27.00
2023-03-07T04:14:15.681Z,30.25
2023-03-07T04:16:44.068Z,29.00
2023-03-07T04:19:13.996Z,27.00
2023-03-07T04:21:42.708Z,28.50
2023-03-07T04:24:11.276Z,28.50
2023-03-07T04:26:39.584Z,27.50
2023-03-07T04:29:07.888Z,27.75
2023-03-07T04:31:36.222Z,29.25
2023-03-07T04:34:04.582Z,28.75
2023-03-07T04:36:32.942Z,29.50
2023-03-07T04:39:01.364Z,29.25
2023-03-07T04:41:30.079Z,28.75
2023-03-07T04:43:58.400Z,28.50
2023-03-07T04:46:27.334Z,28.00
2023-03-07T04:48:55.986Z,24.50
2023-03-07T04:51:25.507Z,30.00
2023-03-07T04:53:54.082Z,28.75
2023-03-07T04:56:22.620Z,30.75
2023-03-07T04:58:51.021Z,29.75
2023-03-07T05:01:19.603Z,28.75
2023-03-07T05:03:48.201Z,29.00
2023-03-07T05:06:17.936Z,29.00
2023-03-07T05:08:46.352Z,28.75
2023-03-07T05:11:14.972Z,25.25
2023-03-07T05:13:43.352Z,28.50
2023-03-07T05:16:11.727Z,24.75
2023-03-07T05:18:40.086Z,28.75
2023-03-07T05:21:08.492Z,28.75
2023-03-07T05:23:36.872Z,28.75
2023-03-07T05:26:05.300Z,28.25
2023-03-07T05:28:33.684Z,27.75
2023-03-07T05:31:02.073Z,30.50
2023-03-07T05:33:30.390Z,28.75
2023-03-07T05:36:01.922Z,28.25
2023-03-07T05:38:30.456Z,30.75
2023-03-07T05:40:58.781Z,31.25
2023-03-07T05:43:27.389Z,30.50
2023-03-07T05:45:55.792Z,31.50
2023-03-07T05:48:24.123Z,32.00
2023-03-07T05:50:52.418Z,31.25
2023-03-07T05:53:20.831Z,30.25
2023-03-07T05:55:49.144Z,30.25
2023-03-07T05:58:17.508Z,33.75
2023-03-07T06:00:45.910Z,31.75
2023-03-07T06:03:14.257Z,31.25
2023-03-07T06:05:42.701Z,28.75
2023-03-07T06:08:10.991Z,29.75
2023-03-07T06:10:41.029Z,30.00
2023-03-07T06:13:13.818Z,30.50
2023-03-07T06:15:42.125Z,31.25
2023-03-07T06:18:10.565Z,31.50
2023-03-07T06:20:38.894Z,29.00
2023-03-07T06:23:07.316Z,31.25
2023-03-07T06:25:35.793Z,29.00
2023-03-07T06:28:04.286Z,29.00
2023-03-07T06:30:32.624Z,29.75
2023-03-07T06:33:01.045Z,28.00
2023-03-07T06:35:29.340Z,29.00
2023-03-07T06:37:57.874Z,29.50
2023-03-07T06:40:26.207Z,30.75
2023-03-07T06:42:54.794Z,30.75
2023-03-07T06:45:23.099Z,31.50
2023-03-07T06:47:51.521Z,29.25
2023-03-07T06:50:26.647Z,29.75
2023-03-07T06:53:02.873Z,28.75
2023-03-07T06:55:31.200Z,30.25
2023-03-07T06:57:59.488Z,27.25
2023-03-07T07:00:27.862Z,29.75
2023-03-07T07:02:56.290Z,29.25
2023-03-07T07:05:24.963Z,28.75
2023-03-07T07:07:53.287Z,30.25
2023-03-07T07:10:21.570Z,29.00
2023-03-07T07:12:50.092Z,28.25
2023-03-07T07:15:18.454Z,30.25
2023-03-07T07:17:46.749Z,28.50
2023-03-07T07:20:15.342Z,29.50
2023-03-07T07:22:43.698Z,30.75
2023-03-07T07:25:12.559Z,29.75
2023-03-07T07:27:40.939Z,27.50
2023-03-07T07:30:10.057Z,33.00
2023-03-07T07:32:38.453Z,27.25
2023-03-07T07:35:07.491Z,30.00
2023-03-07T07:37:35.901Z,31.00
2023-03-07T07:40:06.111Z,31.25
2023-03-07T07:42:34.471Z,28.75
2023-03-07T07:45:02.837Z,25.75
2023-03-07T07:47:31.171Z,26.50
2023-03-07T07:49:59.499Z,30.50
2023-03-07T07:52:27.924Z,30.00
2023-03-07T07:54:56.200Z,29.75
2023-03-07T07:57:24.585Z,27.75
2023-03-07T07:59:53.180Z,26.00
2023-03-07T08:02:21.777Z,30.75
2023-03-07T08:04:50.270Z,30.75
2023-03-07T08:07:18.706Z,31.25
2023-03-07T08:09:46.977Z,29.50
2023-03-07T08:12:15.484Z,30.00
2023-03-07T08:14:43.866Z,28.75
2023-03-07T08:17:12.214Z,29.50
2023-03-07T08:19:40.559Z,29.00
2023-03-07T08:22:08.839Z,28.25
2023-03-07T08:24:40.955Z,31.00
2023-03-07T08:27:10.120Z,27.25
2023-03-07T08:29:38.504Z,29.25
2023-03-07T08:32:07.216Z,29.25
2023-03-07T08:34:35.581Z,30.25
2023-03-07T08:37:04.272Z,29.50
2023-03-07T08:39:32.568Z,27.00
2023-03-07T08:42:01.826Z,29.00
2023-03-07T08:44:30.186Z,28.75
2023-03-07T08:46:58.512Z,31.50
2023-03-07T08:49:26.872Z,27.50
2023-03-07T08:51:55.284Z,27.25
2023-03-07T08:54:23.567Z,29.50
2023-03-07T08:56:54.597Z,28.50
2023-03-07T08:59:22.904Z,28.00
2023-03-07T09:01:51.449Z,24.00
2023-03-07T09:04:19.852Z,29.00
2023-03-07T09:06:48.201Z,29.75
2023-03-07T09:09:16.586Z,29.00
2023-03-07T09:11:44.888Z,30.00
2023-03-07T09:14:13.193Z,30.25
2023-03-07T09:16:41.836Z,28.00
2023-03-07T09:19:10.251Z,29.00
2023-03-07T09:21:38.646Z,27.25
2023-03-07T09:24:07.093Z,28.50
2023-03-07T09:26:35.745Z,26.25
2023-03-07T09:29:04.084Z,26.25
2023-03-07T09:31:32.480Z,30.50
2023-03-07T09:34:00.869Z,29.50
2023-03-07T09:36:29.244Z,29.25
2023-03-07T09:38:58.256Z,28.75
2023-03-07T09:41:53.737Z,30.25
2023-03-07T09:44:38.114Z,26.00
2023-03-07T09:47:28.336Z,29.75
2023-03-07T09:49:57.664Z,28.75
2023-03-07T09:52:34.233Z,28.00
2023-03-07T09:55:12.478Z,28.75
2023-03-07T09:58:02.035Z,28.50
2023-03-07T10:00:36.066Z,26.25
2023-03-07T10:03:28.678Z,28.75
2023-03-07T10:06:14.144Z,29.00
2023-03-07T10:08:42.728Z,29.00
2023-03-07T10:11:35.795Z,32.00
2023-03-07T10:14:14.161Z,27.75
2023-03-07T10:16:45.203Z,28.25
2023-03-07T10:19:45.787Z,29.00
2023-03-07T10:22:16.801Z,28.25
2023-03-07T10:25:10.215Z,31.50
2023-03-07T10:27:40.363Z,31.75
2023-03-07T10:30:20.275Z,30.75
2023-03-07T10:32:53.226Z,29.50
2023-03-07T10:35:26.474Z,26.00
2023-03-07T10:38:01.243Z,31.00
2023-03-07T10:40:44.878Z,32.75
2023-03-07T10:43:24.949Z,30.25
2023-03-07T10:46:24.832Z,30.00
2023-03-07T10:49:23.816Z,29.00
2023-03-07T10:52:13.436Z,28.50
2023-03-07T10:54:41.710Z,29.25
2023-03-07T10:57:15.791Z,30.00
2023-03-07T10:59:49.396Z,28.50
2023-03-07T11:02:32.172Z,29.00
2023-03-07T11:05:01.080Z,29.75
2023-03-07T11:07:35.924Z,28.25
2023-03-07T11:10:33.628Z,29.50
2023-03-07T11:13:21.950Z,32.25
2023-03-07T11:15:51.738Z,32.50
2023-03-07T11:18:31.552Z,31.00
2023-03-07T11:21:00.426Z,31.25
2023-03-07T11:23:34.167Z,32.00
2023-03-07T11:26:23.608Z,31.50
2023-03-07T11:29:10.814Z,30.50
2023-03-07T11:32:06.021Z,38.25
2023-03-07T11:35:00.437Z,31.75
2023-03-07T11:37:40.623Z,32.00
2023-03-07T11:40:57.701Z,29.75
2023-03-07T11:43:49.057Z,33.00
2023-03-07T11:46:40.230Z,32.00
2023-03-07T11:49:21.779Z,32.00
2023-03-07T11:51:55.873Z,32.50
2023-03-07T11:54:42.322Z,33.50
2023-03-07T11:57:28.169Z,31.50
2023-03-07T12:00:02.754Z,32.00
2023-03-07T12:02:48.873Z,32.00
2023-03-07T12:05:28.981Z,30.25
2023-03-07T12:08:41.407Z,30.75
2023-03-07T12:11:27.702Z,30.00
2023-03-07T12:14:13.847Z,31.50
2023-03-07T12:16:54.218Z,31.50
2023-03-07T12:19:59.631Z,34.75
2023-03-07T12:23:00.349Z,33.25
2023-03-07T12:25:34.490Z,31.00
2023-03-07T12:28:33.441Z,32.50
2023-03-07T12:31:21.540Z,31.00
2023-03-07T12:34:11.516Z,32.75
2023-03-07T12:36:42.980Z,34.25
2023-03-07T12:39:33.774Z,32.00
2023-03-07T12:42:40.137Z,32.25
2023-03-07T12:45:21.658Z,31.50
2023-03-07T12:47:58.808Z,31.50
2023-03-07T12:50:33.003Z,34.50
2023-03-07T12:53:07.009Z,32.00
2023-03-07T12:55:46.428Z,32.00
2023-03-07T12:58:20.986Z,33.50
2023-03-07T13:00:55.705Z,29.75
2023-03-07T13:03:50.759Z,31.75
2023-03-07T13:06:23.004Z,30.75
2023-03-07T13:08:54.466Z,31.00
2023-03-07T13:11:26.547Z,31.75
2023-03-07T13:14:05.326Z,29.50
2023-03-07T13:16:47.812Z,34.25
2023-03-07T13:19:38.019Z,31.00
2023-03-07T13:22:18.423Z,31.00
2023-03-07T13:24:49.405Z,33.50
2023-03-07T13:27:21.978Z,31.00
2023-03-07T13:30:24.302Z,31.50
2023-03-07T13:32:52.578Z,30.50
2023-03-07T13:35:47.397Z,31.75
2023-03-07T13:38:44.975Z,35.00
2023-03-07T13:41:15.009Z,32.00
2023-03-07T13:43:46.403Z,33.25
2023-03-07T13:46:47.853Z,30.75
2023-03-07T13:49:35.726Z,33.50
2023-03-07T13:52:22.570Z,36.25
2023-03-07T13:54:52.234Z,34.75
2023-03-07T13:57:27.583Z,34.50
2023-03-07T13:59:57.327Z,36.00
2023-03-07T14:02:25.930Z,35.50
2023-03-07T14:04:58.734Z,33.00
2023-03-07T14:07:45.344Z,33.75
2023-03-07T14:10:33.338Z,36.50
2023-03-07T14:13:16.902Z,35.00
2023-03-07T14:16:01.246Z,35.75
2023-03-07T14:18:46.933Z,36.25
2023-03-07T14:21:28.163Z,33.75
2023-03-07T14:24:17.162Z,35.50
2023-03-07T14:26:51.647Z,36.00
2023-03-07T14:29:25.507Z,33.75
2023-03-07T14:31:57.933Z,31.75
2023-03-07T14:34:30.864Z,34.25
2023-03-07T14:37:05.363Z,33.75
2023-03-07T14:39:59.872Z,34.25
2023-03-07T14:42:53.406Z,31.00
2023-03-07T14:45:45.824Z,31.75
2023-03-07T14:48:31.261Z,33.50
2023-03-07T14:51:10.943Z,35.00
2023-03-07T14:53:39.465Z,33.25
2023-03-07T14:56:09.544Z,33.75
2023-03-07T14:58:54.706Z,34.50
2023-03-07T15:01:23.774Z,33.25
2023-03-07T15:03:55.770Z,32.25
2023-03-07T15:06:28.860Z,33.00
2023-03-07T15:08:59.626Z,33.00
2023-03-07T15:11:45.886Z,33.75
2023-03-07T15:14:23.812Z,34.00
2023-03-07T15:17:01.757Z,35.50
2023-03-07T15:19:48.077Z,33.00
2023-03-07T15:22:41.256Z,34.75
2023-03-07T15:25:25.186Z,35.00
2023-03-07T15:28:21.926Z,34.50
2023-03-07T15:30:53.770Z,34.75
2023-03-07T15:33:24.349Z,34.00
2023-03-07T15:36:14.208Z,35.75
2023-03-07T15:38:51.324Z,34.00
2023-03-07T15:41:59.249Z,35.25
2023-03-07T15:44:27.676Z,34.00
2023-03-07T15:46:58.841Z,34.75
2023-03-07T15:49:55.930Z,34.25
2023-03-07T15:52:33.398Z,35.25
2023-03-07T15:55:06.385Z,34.00
2023-03-07T15:57:56.224Z,36.50
2023-03-07T16:00:44.714Z,36.00
2023-03-07T16:03:30.103Z,35.00
2023-03-07T16:06:01.262Z,35.50
2023-03-07T16:08:29.864Z,38.25
2023-03-07T16:11:02.336Z,35.50
2023-03-07T16:13:33.909Z,36.25
2023-03-07T16:16:15.827Z,33.25
2023-03-07T16:18:44.922Z,37.50
2023-03-07T16:21:15.496Z,34.75
2023-03-07T16:23:44.796Z,34.50
2023-03-07T16:26:19.569Z,35.00
2023-03-07T16:28:48.610Z,34.50
2023-03-07T16:31:18.561Z,35.75
2023-03-07T16:33:47.817Z,36.50
2023-03-07T16:36:16.872Z,35.75
2023-03-07T16:38:46.970Z,36.00
2023-03-07T16:41:20.926Z,35.00
2023-03-07T16:43:56.137Z,35.00
2023-03-07T16:46:25.331Z,35.00
2023-03-07T16:48:53.674Z,34.75
2023-03-07T16:51:24.480Z,35.50
2023-03-07T16:53:53.057Z,36.25
2023-03-07T16:56:31.925Z,35.25
2023-03-07T16:59:04.012Z,35.50
2023-03-07T17:01:32.530Z,35.25
2023-03-07T17:04:00.925Z,37.75
2023-03-07T17:06:38.859Z,36.75
2023-03-07T17:09:10.400Z,35.25
2023-03-07T17:11:46.871Z,37.75
2023-03-07T17:14:18.355Z,38.50
2023-03-07T17:16:51.595Z,36.25
2023-03-07T17:19:23.240Z,36.25
2023-03-07T17:21:51.629Z,37.50
2023-03-07T17:24:20.011Z,33.25
2023-03-07T17:26:50.285Z,37.00
2023-03-07T17:29:21.599Z,34.75
2023-03-07T17:31:49.903Z,36.25
2023-03-07T17:34:26.596Z,36.25
2023-03-07T17:36:55.273Z,39.00
2023-03-07T17:39:23.651Z,38.25
2023-03-07T17:41:51.991Z,37.50
2023-03-07T17:44:20.346Z,34.75
2023-03-07T17:46:48.843Z,34.25
2023-03-07T17:49:17.185Z,36.75
2023-03-07T17:51:45.481Z,38.25
2023-03-07T17:54:13.825Z,36.00
2023-03-07T17:56:42.189Z,35.50
2023-03-07T17:59:10.660Z,37.75
2023-03-07T18:01:39.424Z,35.25
2023-03-07T18:04:07.879Z,36.75
2023-03-07T18:06:39.377Z,36.25
2023-03-07T18:09:09.275Z,35.00
2023-03-07T18:11:37.622Z,35.25
2023-03-07T18:14:05.966Z,35.75
2023-03-07T18:16:34.341Z,37.00
2023-03-07T18:19:04.801Z,34.75
2023-03-07T18:21:34.486Z,34.00
2023-03-07T18:24:03.288Z,35.25
2023-03-07T18:26:31.767Z,37.75
2023-03-07T18:29:00.613Z,37.50
2023-03-07T18:31:31.651Z,37.00
2023-03-07T18:34:01.779Z,37.00
2023-03-07T18:36:30.262Z,33.25
2023-03-07T18:38:59.935Z,38.25
2023-03-07T18:41:29.863Z,37.25
2023-03-07T18:43:59.363Z,37.25
2023-03-07T18:46:33.272Z,34.00
2023-03-07T18:49:02.545Z,35.00
2023-03-07T18:51:31.140Z,35.75
2023-03-07T18:54:02.165Z,35.00
2023-03-07T18:56:31.515Z,35.25
2023-03-07T18:59:00.436Z,35.50
2023-03-07T19:01:34.635Z,35.50
2023-03-07T19:04:04.510Z,35.25
2023-03-07T19:06:40.125Z,38.75
2023-03-07T19:09:21.794Z,37.00
2023-03-07T19:11:50.154Z,39.25
2023-03-07T19:14:18.624Z,39.00
2023-03-07T19:16:47.124Z,37.75
2023-03-07T19:19:15.679Z,36.75
2023-03-07T19:21:44.077Z,33.50
2023-03-07T19:24:13.097Z,37.75
2023-03-07T19:26:43.608Z,37.25
2023-03-07T19:29:13.608Z,38.00
2023-03-07T19:31:44.677Z,37.25
2023-03-07T19:34:13.164Z,36.50
2023-03-07T19:36:42.740Z,41.00
2023-03-07T19:39:15.945Z,42.25
2023-03-07T19:41:46.398Z,40.50
2023-03-07T19:44:15.439Z,35.00
2023-03-07T19:46:47.368Z,38.50
2023-03-07T19:49:19.756Z,41.25
2023-03-07T19:51:48.079Z,40.50
2023-03-07T19:54:16.944Z,39.00
2023-03-07T19:56:46.538Z,36.75
2023-03-07T19:59:15.438Z,37.00
2023-03-07T20:01:44.475Z,37.00
2023-03-07T20:04:14.425Z,35.50
2023-03-07T20:06:43.396Z,37.25
2023-03-07T20:09:13.871Z,38.00
2023-03-07T20:11:44.308Z,37.75
2023-03-07T20:14:13.835Z,38.00
2023-03-07T20:16:42.703Z,36.50
2023-03-07T20:19:11.545Z,39.50
2023-03-07T20:21:41.193Z,37.50
2023-03-07T20:24:10.191Z,39.75
2023-03-07T20:26:40.220Z,38.50
2023-03-07T20:29:10.730Z,39.25
2023-03-07T20:31:40.318Z,40.25
2023-03-07T20:34:09.068Z,37.25
2023-03-07T20:36:38.765Z,39.75
2023-03-07T20:39:09.819Z,37.50
2023-03-07T20:41:38.114Z,39.00
2023-03-07T20:44:09.213Z,40.00
2023-03-07T20:46:39.800Z,39.50
2023-03-07T20:49:08.492Z,35.50
2023-03-07T20:51:37.645Z,39.00
2023-03-07T20:54:17.643Z,38.75
2023-03-07T20:56:48.139Z,38.00
2023-03-07T20:59:19.181Z,38.75
2023-03-07T21:01:47.645Z,39.50
2023-03-07T21:04:18.629Z,40.00
2023-03-07T21:06:48.002Z,38.25
2023-03-07T21:09:18.159Z,39.75
2023-03-07T21:11:49.890Z,40.00
2023-03-07T21:14:20.232Z,40.00
2023-03-07T21:16:49.060Z,39.25
2023-03-07T21:19:17.420Z,40.50
2023-03-07T21:21:46.257Z,40.50
2023-03-07T21:24:16.441Z,42.25
2023-03-07T21:26:44.859Z,40.75
2023-03-07T21:29:14.822Z,39.25
2023-03-07T21:31:43.208Z,41.00
2023-03-07T21:34:14.784Z,41.75
2023-03-07T21:36:43.329Z,41.00
2023-03-07T21:39:12.579Z,43.00
2023-03-07T21:41:41.071Z,43.25
2023-03-07T21:44:09.488Z,43.00
2023-03-07T21:46:38.636Z,44.00
2023-03-07T21:49:06.938Z,42.00
2023-03-07T21:51:35.393Z,43.00
2023-03-07T21:54:03.685Z,41.50
2023-03-07T21:56:32.080Z,43.00
2023-03-07T21:59:00.469Z,42.25
2023-03-07T22:01:30.590Z,41.00
2023-03-07T22:04:00.372Z,39.50
2023-03-07T22:06:29.786Z,43.00
2023-03-07T22:09:00.449Z,41.75
2023-03-07T22:11:28.995Z,41.50
2023-03-07T22:13:57.485Z,41.75
2023-03-07T22:16:25.832Z,41.75
2023-03-07T22:18:58.066Z,41.00
2023-03-07T22:21:27.332Z,42.00
2023-03-07T22:24:01.505Z,40.25
2023-03-07T22:26:31.912Z,41.25
2023-03-07T22:29:00.654Z,39.75
2023-03-07T22:31:29.845Z,41.00
2023-03-07T22:33:59.976Z,42.75
2023-03-07T22:36:28.618Z,39.25
2023-03-07T22:38:57.913Z,39.75
2023-03-07T22:41:26.626Z,44.50
2023-03-07T22:43:55.463Z,40.50
2023-03-07T22:46:24.259Z,38.00
2023-03-07T22:48:57.292Z,40.50
2023-03-07T22:51:26.964Z,40.00
2023-03-07T22:53:55.740Z,38.75
2023-03-07T22:56:27.263Z,40.00
2023-03-07T22:58:56.381Z,39.25
2023-03-07T23:01:27.342Z,39.50
2023-03-07T23:03:57.360Z,39.25
2023-03-07T23:06:29.506Z,42.00
2023-03-07T23:09:00.493Z,39.50
2023-03-07T23:11:31.354Z,39.75
2023-03-07T23:13:59.806Z,40.75
2023-03-07T23:16:30.383Z,44.25
2023-03-07T23:19:00.337Z,41.00
2023-03-07T23:21:32.273Z,43.25
2023-03-07T23:24:02.628Z,41.00
2023-03-07T23:26:36.648Z,44.00
2023-03-07T23:29:06.933Z,43.00
2023-03-07T23:31:38.121Z,39.00
2023-03-07T23:34:09.023Z,43.00
2023-03-07T23:36:37.491Z,42.00
2023-03-07T23:39:06.226Z,46.00
2023-03-07T23:41:34.509Z,45.25
2023-03-07T23:44:04.062Z,45.00
2023-03-07T23:46:32.824Z,47.75
2023-03-07T23:49:01.318Z,46.50
2023-03-07T23:51:29.723Z,45.50
2023-03-07T23:53:58.146Z,47.25
2023-03-07T23:56:26.513Z,45.25
2023-03-07T23:58:55.240Z,45.75
